createdAt,value
2019-03-19T00:01:44.986Z,79.80
2019-03-19T00:04:13.858Z,80.00
2019-03-19T00:06:42.551Z,80.80
2019-03-19T00:09:11.254Z,81.90
2019-03-19T00:11:39.958Z,82.60
2019-03-19T00:14:08.656Z,82.80
2019-03-19T00:16:37.408Z,83.60
2019-03-19T00:19:06.112Z,84.20
2019-03-19T00:21:34.836Z,85.40
2019-03-19T00:24:03.557Z,86.80
2019-03-19T00:26:32.290Z,87.20
2019-03-19T00:29:00.920Z,87.30
2019-03-19T00:31:29.620Z,88.00
2019-03-19T00:33:58.386Z,87.60
2019-03-19T00:36:27.024Z,87.90
2019-03-19T00:38:55.742Z,89.00
2019-03-19T00:41:24.415Z,89.80
2019-03-19T00:43:53.051Z,90.10
2019-03-19T00:46:21.726Z,90.30
2019-03-19T00:48:50.436Z,90.40
2019-03-19T00:51:19.176Z,90.50
2019-03-19T00:53:47.909Z,90.20
2019-03-19T00:56:17.461Z,89.60
2019-03-19T00:58:46.133Z,90.00
2019-03-19T01:01:14.903Z,90.10
2019-03-19T01:03:43.538Z,90.70
2019-03-19T01:06:12.212Z,90.80
2019-03-19T01:08:40.940Z,91.40
2019-03-19T01:11:09.624Z,91.50
2019-03-19T01:13:38.329Z,91.40
2019-03-19T01:16:07.223Z,91.70
2019-03-19T01:18:35.898Z,91.50
2019-03-19T01:21:04.684Z,91.90
2019-03-19T01:23:33.403Z,91.90
2019-03-19T01:26:02.200Z,92.30
2019-03-19T01:28:30.966Z,92.20
2019-03-19T01:30:59.831Z,92.30
2019-03-19T01:33:28.458Z,92.80
2019-03-19T01:35:57.160Z,93.10
2019-03-19T01:38:25.928Z,93.00
2019-03-19T01:40:54.625Z,93.00
2019-03-19T01:43:23.275Z,93.10
2019-03-19T01:45:52.035Z,93.30
2019-03-19T01:48:20.681Z,93.60
2019-03-19T01:50:49.262Z,93.40
2019-03-19T01:53:17.881Z,93.50
2019-03-19T01:55:46.653Z,93.30
2019-03-19T01:58:15.383Z,93.70
2019-03-19T02:00:44.105Z,93.40
2019-03-19T02:03:12.896Z,93.80
2019-03-19T02:05:41.604Z,94.10
2019-03-19T02:08:10.354Z,94.10
2019-03-19T02:10:39.066Z,94.10
2019-03-19T02:13:07.685Z,94.30
2019-03-19T02:15:36.325Z,94.30
2019-03-19T02:18:05.173Z,94.30
2019-03-19T02:20:34.666Z,94.20
2019-03-19T02:23:04.731Z,94.30
2019-03-19T02:25:33.545Z,94.40
2019-03-19T02:28:02.147Z,94.50
2019-03-19T02:30:31.019Z,94.60
2019-03-19T02:32:59.584Z,94.80
2019-03-19T02:35:28.332Z,94.80
2019-03-19T02:37:56.919Z,94.80
2019-03-19T02:40:25.685Z,94.80
2019-03-19T02:42:54.344Z,94.80
2019-03-19T02:45:23.111Z,94.90
2019-03-19T02:47:51.700Z,94.90
2019-03-19T02:50:20.474Z,95.10
2019-03-19T02:52:49.138Z,95.10
2019-03-19T02:55:17.885Z,95.20
2019-03-19T02:57:46.517Z,95.30
2019-03-19T03:00:17.369Z,95.40
2019-03-19T03:02:46.201Z,95.30
2019-03-19T03:05:17.067Z,95.40
2019-03-19T03:07:45.848Z,95.50
2019-03-19T03:10:15.186Z,95.50
2019-03-19T03:12:43.958Z,95.60
2019-03-19T03:15:13.701Z,95.60
2019-03-19T03:17:42.491Z,95.60
2019-03-19T03:20:15.937Z,95.70
2019-03-19T03:22:44.660Z,95.70
2019-03-19T03:25:14.473Z,95.70
2019-03-19T03:27:43.130Z,95.80
2019-03-19T03:30:14.835Z,95.70
2019-03-19T03:32:43.650Z,95.80
2019-03-19T03:35:12.816Z,95.80
2019-03-19T03:37:41.585Z,95.90
2019-03-19T03:40:13.166Z,95.90
2019-03-19T03:42:43.254Z,95.90
2019-03-19T03:45:13.528Z,95.80
2019-03-19T03:47:42.298Z,95.80
2019-03-19T03:50:13.813Z,95.80
2019-03-19T03:52:42.635Z,95.80
2019-03-19T03:55:12.948Z,95.80
2019-03-19T03:57:41.648Z,95.80
2019-03-19T04:00:13.165Z,95.90
2019-03-19T04:02:44.661Z,95.90
2019-03-19T04:05:12.801Z,95.80
2019-03-19T04:07:41.549Z,95.70
2019-03-19T04:10:12.603Z,96.00
2019-03-19T04:12:41.465Z,95.70
2019-03-19T04:15:12.448Z,95.80
2019-03-19T04:17:41.232Z,95.90
2019-03-19T04:20:11.914Z,96.00
2019-03-19T04:22:40.765Z,96.10
2019-03-19T04:25:10.846Z,96.10
2019-03-19T04:27:40.623Z,96.20
2019-03-19T04:30:13.318Z,96.30
2019-03-19T04:32:42.095Z,96.20
2019-03-19T04:35:11.107Z,96.10
2019-03-19T04:37:39.763Z,96.10
2019-03-19T04:40:10.682Z,96.10
2019-03-19T04:42:39.542Z,96.10
2019-03-19T04:45:10.615Z,96.10
2019-03-19T04:47:42.261Z,96.10
2019-03-19T04:50:12.746Z,96.30
2019-03-19T04:52:41.543Z,96.30
2019-03-19T04:55:12.166Z,96.30
2019-03-19T04:57:40.885Z,96.40
2019-03-19T05:00:12.720Z,96.40
2019-03-19T05:02:41.463Z,96.40
2019-03-19T05:05:11.533Z,96.30
2019-03-19T05:07:40.362Z,96.30
2019-03-19T05:10:12.273Z,96.30
2019-03-19T05:12:41.099Z,96.40
2019-03-19T05:15:10.673Z,96.80
2019-03-19T05:17:39.437Z,96.40
2019-03-19T05:20:11.599Z,96.40
2019-03-19T05:22:40.326Z,96.40
2019-03-19T05:25:09.959Z,96.40
2019-03-19T05:27:38.766Z,96.30
2019-03-19T05:30:10.776Z,96.20
2019-03-19T05:32:39.437Z,96.20
2019-03-19T05:35:09.505Z,96.50
2019-03-19T05:37:38.368Z,96.50
2019-03-19T05:40:09.799Z,96.60
2019-03-19T05:42:38.547Z,96.60
2019-03-19T05:45:10.231Z,96.70
2019-03-19T05:47:40.511Z,96.80
2019-03-19T05:50:12.581Z,96.80
2019-03-19T05:52:42.785Z,96.80
2019-03-19T05:55:11.783Z,96.80
2019-03-19T05:57:48.718Z,96.80
2019-03-19T06:00:13.733Z,96.90
2019-03-19T06:02:42.506Z,97.00
2019-03-19T06:05:12.286Z,97.30
2019-03-19T06:07:41.121Z,97.60
2019-03-19T06:10:14.079Z,97.90
2019-03-19T06:12:42.809Z,98.10
2019-03-19T06:15:13.241Z,98.60
2019-03-19T06:17:41.970Z,98.70
2019-03-19T06:20:12.644Z,98.90
2019-03-19T06:22:41.433Z,99.50
2019-03-19T06:25:11.624Z,99.60
2019-03-19T06:27:40.359Z,99.90
2019-03-19T06:30:12.050Z,99.70
2019-03-19T06:32:40.815Z,97.80
2019-03-19T06:35:11.041Z,88.50
2019-03-19T06:37:39.774Z,67.60
2019-03-19T06:40:11.952Z,52.10
2019-03-19T06:42:40.730Z,47.20
2019-03-19T06:45:12.419Z,41.00
2019-03-19T06:47:41.141Z,37.80
2019-03-19T06:50:12.713Z,34.00
2019-03-19T06:52:41.398Z,31.70
2019-03-19T06:55:12.166Z,28.50
2019-03-19T06:57:40.821Z,29.60
2019-03-19T07:00:12.372Z,27.00
2019-03-19T07:02:41.069Z,25.10
2019-03-19T07:05:10.302Z,22.10
2019-03-19T07:07:38.995Z,23.30
2019-03-19T07:10:10.621Z,25.80
2019-03-19T07:12:39.262Z,25.80
2019-03-19T07:15:11.122Z,24.00
2019-03-19T07:17:39.811Z,23.20
2019-03-19T07:20:11.340Z,25.00
2019-03-19T07:22:40.124Z,21.60
2019-03-19T07:25:09.845Z,20.50
2019-03-19T07:27:38.702Z,18.90
2019-03-19T07:30:10.482Z,19.30
2019-03-19T07:32:39.214Z,19.80
2019-03-19T07:35:08.195Z,19.30
2019-03-19T07:37:36.900Z,19.60
2019-03-19T07:40:08.420Z,18.90
2019-03-19T07:42:37.166Z,18.50
2019-03-19T07:45:09.268Z,15.90
2019-03-19T07:47:37.948Z,16.20
2019-03-19T07:50:09.769Z,14.30
2019-03-19T07:52:38.462Z,14.80
2019-03-19T07:55:07.357Z,13.20
2019-03-19T07:57:36.148Z,13.70
2019-03-19T08:00:07.701Z,13.40
2019-03-19T08:02:36.390Z,12.30
2019-03-19T08:05:07.835Z,13.80
2019-03-19T08:07:36.882Z,12.80
2019-03-19T08:10:08.327Z,13.10
2019-03-19T08:12:36.989Z,11.40
2019-03-19T08:15:08.914Z,10.50
2019-03-19T08:17:37.597Z,9.60
2019-03-19T08:20:09.440Z,10.20
2019-03-19T08:22:38.130Z,9.00
2019-03-19T08:25:09.274Z,7.70
2019-03-19T08:27:38.286Z,8.10
2019-03-19T08:30:09.976Z,7.00
2019-03-19T08:32:38.686Z,4.90
2019-03-19T08:35:07.754Z,4.90
2019-03-19T08:37:36.471Z,6.20
2019-03-19T08:40:08.031Z,5.50
2019-03-19T08:42:36.739Z,5.80
2019-03-19T08:45:08.482Z,4.80
2019-03-19T08:47:38.471Z,4.70
2019-03-19T08:50:10.226Z,5.20
2019-03-19T08:52:38.829Z,4.60
2019-03-19T08:55:07.549Z,4.50
2019-03-19T08:57:36.191Z,3.00
2019-03-19T09:00:07.689Z,3.50
2019-03-19T09:02:36.382Z,2.90
2019-03-19T09:05:07.712Z,2.80
2019-03-19T09:07:36.429Z,3.10
2019-03-19T09:10:08.051Z,3.00
2019-03-19T09:12:36.742Z,3.00
2019-03-19T09:15:08.245Z,5.00
2019-03-19T09:17:36.963Z,3.00
2019-03-19T09:20:08.476Z,3.30
2019-03-19T09:22:37.235Z,1.90
2019-03-19T09:25:07.545Z,1.00
2019-03-19T09:27:36.289Z,2.50
2019-03-19T09:30:07.977Z,5.70
2019-03-19T09:32:36.632Z,7.20
2019-03-19T09:35:06.399Z,8.10
2019-03-19T09:37:46.275Z,9.10
2019-03-19T09:40:16.258Z,11.40
2019-03-19T09:42:44.959Z,11.10
2019-03-19T09:45:15.915Z,12.40
2019-03-19T09:47:44.647Z,13.40
2019-03-19T09:50:16.230Z,13.10
2019-03-19T09:52:45.137Z,14.10
2019-03-19T09:55:14.492Z,14.90
2019-03-19T09:57:43.229Z,9.40
2019-03-19T10:00:14.742Z,5.20
2019-03-19T10:02:43.427Z,3.90
2019-03-19T10:05:12.257Z,3.90
2019-03-19T10:07:40.983Z,2.40
2019-03-19T10:10:12.454Z,1.00
2019-03-19T10:12:41.055Z,1.00
2019-03-19T10:15:10.247Z,1.00
2019-03-19T10:17:38.905Z,1.00
2019-03-19T10:20:10.435Z,1.00
2019-03-19T10:22:39.142Z,1.00
2019-03-19T10:25:10.886Z,1.00
2019-03-19T10:27:39.532Z,1.00
2019-03-19T10:30:11.077Z,1.00
2019-03-19T10:32:39.769Z,1.00
2019-03-19T10:35:09.162Z,1.00
2019-03-19T10:37:37.893Z,1.00
2019-03-19T10:40:08.668Z,1.00
2019-03-19T10:42:37.285Z,1.00
2019-03-19T10:45:08.822Z,1.00
2019-03-19T10:47:37.534Z,1.00
2019-03-19T10:50:09.102Z,1.00
2019-03-19T10:52:37.748Z,1.00
2019-03-19T10:55:06.994Z,1.00
2019-03-19T10:57:35.753Z,1.00
2019-03-19T11:00:08.700Z,1.00
2019-03-19T11:02:37.431Z,1.00
2019-03-19T11:05:09.348Z,1.00
2019-03-19T11:07:38.018Z,1.00
2019-03-19T11:10:10.254Z,1.00
2019-03-19T11:12:39.188Z,1.00
2019-03-19T11:15:10.680Z,1.00
2019-03-19T11:17:39.407Z,1.00
2019-03-19T11:20:10.901Z,1.10
2019-03-19T11:22:39.569Z,1.00
2019-03-19T11:25:11.468Z,1.10
2019-03-19T11:27:43.118Z,1.00
2019-03-19T11:30:15.032Z,1.00
2019-03-19T11:32:43.777Z,1.80
2019-03-19T11:35:14.104Z,1.00
2019-03-19T11:37:42.904Z,1.00
2019-03-19T11:40:13.817Z,1.00
2019-03-19T11:45:25.994Z,1.00
2019-03-19T11:47:55.335Z,1.00
2019-03-19T11:50:58.598Z,1.00
2019-03-19T11:53:27.958Z,1.00
2019-03-19T11:55:57.311Z,1.00
2019-03-19T11:58:26.617Z,1.00
2019-03-19T12:01:38.415Z,1.00
2019-03-19T12:04:07.918Z,1.00
2019-03-19T12:06:37.125Z,1.00
2019-03-19T12:15:47.199Z,1.00
2019-03-19T12:18:40.106Z,1.00
2019-03-19T12:24:02.398Z,1.00
2019-03-19T12:26:51.173Z,1.00
2019-03-19T12:32:08.335Z,1.00
2019-03-19T12:38:03.325Z,1.00
2019-03-19T12:40:36.853Z,1.00
2019-03-19T12:43:02.577Z,1.00
2019-03-19T12:45:31.377Z,1.00
2019-03-19T12:48:00.111Z,1.00
2019-03-19T12:50:28.826Z,1.00
2019-03-19T12:52:57.528Z,1.00
2019-03-19T12:55:26.259Z,1.00
2019-03-19T12:57:55.137Z,1.00
2019-03-19T13:02:56.273Z,1.00
2019-03-19T13:05:25.082Z,1.00
2019-03-19T13:06:07.814Z,1.00
2019-03-19T13:07:53.855Z,1.00
2019-03-19T13:10:24.439Z,1.00
2019-03-19T13:12:53.157Z,1.00
2019-03-19T13:15:22.098Z,1.00
2019-03-19T13:17:50.857Z,1.00
2019-03-19T13:20:20.422Z,1.00
2019-03-19T13:22:49.123Z,1.00
2019-03-19T13:25:19.972Z,1.00
2019-03-19T13:27:48.695Z,1.00
2019-03-19T13:30:20.297Z,1.00
2019-03-19T13:32:49.023Z,1.00
2019-03-19T13:35:17.713Z,1.00
2019-03-19T13:37:46.443Z,1.00
2019-03-19T13:40:17.124Z,1.00
2019-03-19T13:45:25.279Z,1.00
2019-03-19T13:50:52.252Z,1.00
2019-03-19T13:53:28.705Z,1.00
2019-03-19T13:58:34.078Z,1.00
2019-03-19T14:01:05.006Z,1.00
2019-03-19T14:03:34.412Z,1.00
2019-03-19T14:06:03.713Z,1.00
2019-03-19T14:17:23.369Z,1.00
2019-03-19T14:19:52.065Z,1.00
2019-03-19T14:22:20.813Z,1.00
2019-03-19T14:24:49.468Z,1.00
2019-03-19T14:27:18.237Z,1.00
2019-03-19T14:29:46.963Z,1.00
2019-03-19T14:32:15.773Z,1.00
2019-03-19T14:34:44.498Z,1.00
2019-03-19T14:37:13.205Z,1.00
2019-03-19T14:39:41.882Z,1.00
2019-03-19T14:42:10.632Z,1.00
2019-03-19T14:44:39.331Z,1.00
2019-03-19T14:47:08.066Z,1.00
2019-03-19T14:49:46.293Z,1.00
2019-03-19T14:55:20.625Z,1.00
2019-03-19T14:57:51.591Z,1.00
2019-03-19T15:00:23.628Z,1.00
2019-03-19T15:02:53.161Z,1.00
2019-03-19T15:08:14.176Z,1.00
2019-03-19T15:10:42.961Z,1.00
2019-03-19T15:13:11.682Z,1.00
2019-03-19T15:15:41.761Z,1.00
2019-03-19T15:18:10.567Z,1.00
2019-03-19T15:20:39.298Z,1.00
2019-03-19T15:23:08.069Z,1.00
2019-03-19T15:25:36.907Z,1.00
2019-03-19T15:28:05.866Z,1.00
2019-03-19T15:30:34.647Z,1.00
2019-03-19T15:33:03.367Z,1.00
2019-03-19T15:35:32.207Z,1.00
2019-03-19T15:38:00.993Z,1.00
2019-03-19T15:40:29.827Z,1.00
2019-03-19T15:43:00.845Z,1.00
2019-03-19T15:45:30.864Z,1.00
2019-03-19T15:48:00.668Z,1.00
2019-03-19T15:50:29.401Z,1.00
2019-03-19T15:52:58.174Z,1.00
2019-03-19T15:55:26.930Z,1.00
2019-03-19T15:57:55.627Z,1.00
2019-03-19T16:00:24.432Z,1.00
2019-03-19T16:02:53.224Z,1.00
2019-03-19T16:05:22.048Z,1.00
2019-03-19T16:07:50.802Z,1.50
2019-03-19T16:10:19.728Z,1.50
2019-03-19T16:12:48.505Z,1.30
2019-03-19T16:15:19.430Z,1.90
2019-03-19T16:17:48.312Z,1.60
2019-03-19T16:20:18.140Z,1.60
2019-03-19T16:22:46.917Z,2.20
2019-03-19T16:25:15.829Z,1.60
2019-03-19T16:27:44.460Z,2.30
2019-03-19T16:30:15.656Z,2.20
2019-03-19T16:32:44.485Z,2.40
2019-03-19T16:35:13.831Z,2.30
2019-03-19T16:37:42.640Z,3.70
2019-03-19T16:40:14.109Z,3.00
2019-03-19T16:42:42.867Z,2.70
2019-03-19T16:45:12.440Z,3.50
2019-03-19T16:47:41.164Z,4.00
2019-03-19T16:50:12.780Z,3.70
2019-03-19T16:52:41.534Z,4.00
2019-03-19T16:55:13.164Z,4.30
2019-03-19T16:57:41.884Z,4.50
2019-03-19T17:00:13.701Z,4.30
2019-03-19T17:02:42.327Z,4.40
2019-03-19T17:05:12.108Z,5.20
2019-03-19T17:07:40.922Z,5.30
2019-03-19T17:10:12.454Z,5.60
2019-03-19T17:12:42.072Z,5.50
2019-03-19T17:15:13.583Z,6.00
2019-03-19T17:17:42.192Z,6.10
2019-03-19T17:20:13.134Z,6.70
2019-03-19T17:22:41.895Z,7.20
2019-03-19T17:25:13.193Z,7.30
2019-03-19T17:27:41.933Z,7.50
2019-03-19T17:30:13.604Z,8.50
2019-03-19T17:32:42.370Z,9.40
2019-03-19T17:35:11.097Z,10.40
2019-03-19T17:37:39.877Z,11.00
2019-03-19T17:40:11.016Z,11.80
2019-03-19T17:42:39.741Z,13.00
2019-03-19T17:45:10.388Z,13.90
2019-03-19T17:47:39.100Z,15.10
2019-03-19T17:50:10.641Z,16.50
2019-03-19T17:52:39.350Z,17.20
2019-03-19T17:55:10.938Z,18.80
2019-03-19T17:57:39.729Z,20.30
2019-03-19T18:00:11.385Z,21.70
2019-03-19T18:02:40.193Z,22.90
2019-03-19T18:05:10.241Z,23.00
2019-03-19T18:07:38.991Z,24.50
2019-03-19T18:10:10.103Z,24.40
2019-03-19T18:12:38.859Z,24.50
2019-03-19T18:15:10.198Z,24.60
2019-03-19T18:17:39.016Z,25.50
2019-03-19T18:20:10.533Z,26.90
2019-03-19T18:22:39.258Z,26.40
2019-03-19T18:25:10.477Z,28.40
2019-03-19T18:27:39.217Z,28.30
2019-03-19T18:30:11.145Z,29.50
2019-03-19T18:32:39.826Z,30.90
2019-03-19T18:35:08.589Z,32.70
2019-03-19T18:37:37.391Z,33.40
2019-03-19T18:40:08.842Z,33.90
2019-03-19T18:42:37.666Z,32.80
2019-03-19T18:45:08.890Z,31.50
2019-03-19T18:47:37.589Z,31.50
2019-03-19T18:50:09.433Z,32.30
2019-03-19T18:52:38.254Z,31.60
2019-03-19T18:55:08.311Z,31.40
2019-03-19T18:57:37.096Z,32.30
2019-03-19T19:00:08.855Z,31.90
2019-03-19T19:02:48.736Z,31.40
2019-03-19T19:05:11.135Z,31.20
2019-03-19T19:07:39.986Z,31.00
2019-03-19T19:10:11.324Z,32.90
2019-03-19T19:12:40.149Z,34.30
2019-03-19T19:15:11.828Z,35.40
2019-03-19T19:17:40.469Z,34.50
2019-03-19T19:20:12.004Z,34.90
2019-03-19T19:22:41.802Z,36.50
2019-03-19T19:25:12.952Z,37.20
2019-03-19T19:27:41.807Z,37.70
2019-03-19T19:30:13.604Z,37.60
2019-03-19T19:32:42.370Z,38.60
2019-03-19T19:35:11.422Z,39.40
2019-03-19T19:37:40.066Z,40.40
2019-03-19T19:40:11.821Z,41.40
2019-03-19T19:42:40.647Z,42.40
2019-03-19T19:45:11.855Z,42.30
2019-03-19T19:47:40.646Z,43.10
2019-03-19T19:50:12.275Z,43.70
2019-03-19T19:52:40.955Z,45.40
2019-03-19T19:55:11.458Z,47.10
2019-03-19T19:57:40.528Z,49.30
2019-03-19T20:00:12.136Z,48.90
2019-03-19T20:02:40.907Z,50.30
2019-03-19T20:05:09.807Z,49.90
2019-03-19T20:07:38.532Z,48.20
2019-03-19T20:10:10.047Z,47.90
2019-03-19T20:12:38.845Z,47.40
2019-03-19T20:15:09.893Z,46.70
2019-03-19T20:17:38.634Z,45.50
2019-03-19T20:20:10.502Z,45.00
2019-03-19T20:22:39.239Z,45.30
2019-03-19T20:25:08.383Z,46.10
2019-03-19T20:27:37.255Z,47.40
2019-03-19T20:30:08.868Z,47.40
2019-03-19T20:32:37.545Z,49.00
2019-03-19T20:35:09.159Z,49.40
2019-03-19T20:37:37.896Z,50.30
2019-03-19T20:40:09.820Z,50.80
2019-03-19T20:42:38.571Z,51.50
2019-03-19T20:45:10.387Z,51.90
2019-03-19T20:47:39.228Z,51.50
2019-03-19T20:50:11.007Z,51.90
2019-03-19T20:52:39.801Z,52.40
2019-03-19T20:55:08.575Z,53.20
2019-03-19T20:57:37.318Z,53.10
2019-03-19T21:00:08.874Z,53.30
2019-03-19T21:02:37.663Z,53.30
2019-03-19T21:05:06.624Z,53.80
2019-03-19T21:07:35.477Z,52.20
2019-03-19T21:10:07.316Z,52.20
2019-03-19T21:12:36.072Z,52.20
2019-03-19T21:15:08.004Z,52.20
2019-03-19T21:17:36.821Z,52.30
2019-03-19T21:20:06.918Z,54.20
2019-03-19T21:22:35.616Z,54.40
2019-03-19T21:25:05.513Z,55.40
2019-03-19T21:27:34.259Z,57.00
2019-03-19T21:30:03.935Z,57.70
2019-03-19T21:32:32.831Z,59.90
2019-03-19T21:35:01.618Z,60.30
2019-03-19T21:37:30.360Z,59.80
2019-03-19T21:39:59.211Z,59.40
2019-03-19T21:42:28.039Z,59.10
2019-03-19T21:44:56.823Z,58.10
2019-03-19T21:47:25.669Z,58.10
2019-03-19T21:49:54.372Z,58.20
2019-03-19T21:52:23.052Z,59.50
2019-03-19T21:54:51.731Z,61.00
2019-03-19T21:57:20.403Z,60.70
2019-03-19T21:59:49.157Z,62.90
2019-03-19T22:02:17.949Z,65.60
2019-03-19T22:04:46.683Z,66.30
2019-03-19T22:07:15.359Z,65.50
2019-03-19T22:09:44.102Z,65.50
2019-03-19T22:12:12.878Z,65.70
2019-03-19T22:14:41.639Z,66.40
2019-03-19T22:17:10.347Z,67.30
2019-03-19T22:19:40.210Z,68.90
2019-03-19T22:22:09.068Z,70.00
2019-03-19T22:24:37.721Z,67.40
2019-03-19T22:27:06.500Z,65.60
2019-03-19T22:29:35.267Z,64.50
2019-03-19T22:32:03.977Z,63.50
2019-03-19T22:34:32.738Z,63.40
2019-03-19T22:37:01.476Z,64.20
2019-03-19T22:39:30.212Z,64.30
2019-03-19T22:41:58.929Z,65.30
2019-03-19T22:44:27.606Z,65.50
2019-03-19T22:46:56.355Z,66.70
2019-03-19T22:49:24.973Z,66.60
2019-03-19T22:51:53.545Z,65.60
2019-03-19T22:54:22.315Z,63.10
2019-03-19T22:56:50.967Z,63.40
2019-03-19T22:59:19.623Z,64.10
2019-03-19T23:01:48.370Z,62.00
2019-03-19T23:04:26.901Z,61.10
2019-03-19T23:06:47.473Z,60.40
2019-03-19T23:09:16.446Z,61.00
2019-03-19T23:11:45.087Z,62.10
2019-03-19T23:14:13.793Z,63.60
2019-03-19T23:16:42.557Z,64.70
2019-03-19T23:19:11.266Z,65.50
2019-03-19T23:21:40.040Z,66.40
2019-03-19T23:24:08.786Z,65.90
2019-03-19T23:26:37.446Z,66.40
2019-03-19T23:29:06.151Z,66.30
2019-03-19T23:31:34.953Z,67.20
2019-03-19T23:34:03.617Z,67.80
2019-03-19T23:36:32.365Z,69.30
2019-03-19T23:39:01.140Z,71.10
2019-03-19T23:41:29.842Z,71.50
2019-03-19T23:43:58.453Z,70.80
2019-03-19T23:46:27.168Z,69.50
2019-03-19T23:48:55.844Z,67.20
2019-03-19T23:51:24.496Z,65.10
2019-03-19T23:53:53.161Z,63.30
2019-03-19T23:56:21.868Z,62.60
2019-03-19T23:58:50.446Z,62.60
